Tiempo atmosférico en la estación meteorológica de Madrid Aeropuerto, Madrid (609 m.)



Fecha
DESCASC
Temp. máxima en grados centígrados (hora)
DESCASC
Temp. mínima en grados centígrados (hora)
DESCASC
Temp. media en grados centígrados
DESCASC
Racha de viento máxima en m/sg (hora)
DESCASC
Velocidad máxima media en intervalos de 10 minutos(hora)
DESCASC
Precipitaciones diarias en mm
DESCASC
Precipitaciones de 00:00 a 06:00 en mm
DESCASC
Precipitaciones de 06:00 a 12:00 en mm
DESCASC
Precipitaciones de 12:00 a 18:00 en mm
DESCASC
Precipitaciones de 18:00 a 24:00 en mm
DESCASC
16-06-2019 30.8 (18:00) 11.1 (04:50) 20.9 8.89 (18:30) 4.72 (18:10) 0 0 0 0 0
15-06-2019 26.8 (18:30) 10.9 (07:30) 18.8 10.28 (00:10) 7.5 (00:20) 0 0 0 0 0
14-06-2019 26 (16:00) 12.2 (07:10) 19.1 18.06 (15:50) 10.28 (20:30) 0 0 0 0 0
13-06-2019 29.3 (18:30) 11 (00:00) 20.1 13.89 (16:40) 7.5 (21:50) 0 0 0 0 0
12-06-2019 25.8 (17:50) 5.6 (00:00) 15.7 10.28 (15:10) 5.83 (17:50) 0 0 0 0 0
11-06-2019 22.2 (15:50) 13.8 (00:00) 18 12.5 (08:40) 9.17 (16:10) 0 0 0 0 0
10-06-2019 27.3 (17:00) 12.6 (00:00) 19.9 10.83 (19:00) 7.5 (19:00) 0 0 0 0 0
09-06-2019 27.8 (17:10) 11.9 (00:00) 19.8 15 (16:30) 8.06 (15:50) 0 0 0 0 0
08-06-2019 29.7 (17:10) 9.4 (00:00) 19.6 13.33 (17:50) 8.61 (17:50) 0 0 0 0 0
07-06-2019 22.7 (17:50) 10.8 (00:00) 16.8 15 (00:40) 10 (02:40) 2.5 2.5 0 0 0
06-06-2019 25.6 (18:10) 8.3 (00:00) 17 17.5 (13:40) 10 (17:50) 0 0 0 0 0
05-06-2019 22.7 (18:10) 13.5 (00:00) 18.1 16.39 (11:00) 11.94 (10:50) 0 0 0 0 0
04-06-2019 29.7 (17:30) 18 (00:00) 23.9 16.94 (15:50) 9.17 (15:40) 0 0 0 0 0
03-06-2019 34 (16:30) 16.8 (00:00) 25.4 15.28 (17:00) 9.72 (16:10) 0 0 0 0 0
02-06-2019 35 (18:10) 14.5 (00:00) 24.8 10.83 (17:00) 6.11 (21:40) 0 0 0 0 0
01-06-2019 34 (18:00) 13.1 (00:00) 23.6 7.78 (12:10) 3.89 (16:40) 0 0 0 0 0
31-05-2019 32.8 (17:10) 12.6 (00:00) 22.7 6.67 (00:10) 3.61 (02:30) 0 0 0 0 0
30-05-2019 31.8 (18:30) 11.6 (00:00) 21.7 7.78 (14:20) 3.89 (11:30) 0 0 0 0 0
29-05-2019 28.2 (18:10) 9.8 (00:00) 19 10.83 (00:30) 6.94 (20:40) 0 0 0 0 0
28-05-2019 27.3 (16:30) 12.5 (00:00) 19.9 14.44 (19:30) 10 (19:40) 0 0 0 0 0
27-05-2019 29.8 (16:10) 11.4 (00:00) 20.6 10.83 (18:10) 6.94 (20:40) 0 0 0 0 0
26-05-2019 28 (18:00) 8.7 (00:00) 18.3 10.83 (15:40) 7.5 (20:50) 0 0 0 0 0
25-05-2019 25.9 (17:00) 10.1 (00:00) 18 10.28 (11:30) 6.11 (10:50) 0 0 0 0 0
24-05-2019 25.3 (18:20) 15.1 (00:00) 20.2 12.5 (21:20) 8.06 (21:20) 0 0 0 0 0
23-05-2019 30 (17:30) 12.2 (00:00) 21.1 16.39 (17:10) 7.5 (17:20) 0 0 0 0 0
22-05-2019 28.8 (17:10) 9.8 (00:00) 19.3 7.78 (14:10) 4.44 (01:10) 0 0 0 0 0
21-05-2019 26.6 (17:20) 13.2 (06:40) 19.9 7.78 (18:50) 5.83 (19:00) 0 0 0 0 0

Gráficas

Temp. máximas Temp. mínimas Temp. medias Precipitaciones Rachas de viento máximas Velocidades máximas media en intervalos de 10 minutos

Datos horarios

Fecha y hora oficial Temperatura (ºC) Velocidad del viento (km/h) Dirección del viento Racha (km/h) Dirección de racha Precipitación (mm) Presión (hPa) Tendencia (hPa) Humedad (%)
2019-06-19 23:00:00 23.9 22 Sudoeste 33 Sudoeste 0 947 0.8 38
2019-06-19 22:00:00 24.8 20 Sudoeste 41 Sudoeste 0 946.7 0.5 37
2019-06-19 21:00:00 26 19 Sudoeste 45 Sur 0 946.5 0 33
2019-06-19 20:00:00 27.4 22 Sudoeste 39 Sur 0 946.2 -0.8 31
2019-06-19 19:00:00 27.8 21 Sudoeste 41 Sudoeste 0 946.2 -1.1 31
2019-06-19 18:00:00 27.9 22 Sudoeste 41 Sur 0 946.5 -1.2 30
2019-06-19 17:00:00 27.3 23 Sudoeste 59 Sudoeste 0 947 -1.2 32
2019-06-19 16:00:00 27.4 27 Sudoeste 54 Sur 0 947.3 -1 33
2019-06-19 15:00:00 26.9 25 Sur 39 Sur 0 947.7 -- 34
2019-06-19 14:00:00 25.7 27 Sudoeste 48 Sudoeste 0 948.2 0 37
2019-06-19 13:00:00 24.9 24 Sudoeste 54 Sudoeste 0 948.3 0.1 39
2019-06-19 12:00:00 -- -- -- -- -- -- -- -- --
2019-06-19 11:00:00 23.2 23 Sudoeste 42 Sudoeste -- 948.2 0.2 43
2019-06-19 10:00:00 22 23 Sudoeste 41 Sudoeste 0 948.2 0.6 46
2019-06-19 09:00:00 20.5 17 Sur 41 Sudoeste 0 948.1 0.6 49
2019-06-19 08:00:00 19.2 15 Sur 33 Sur 0 948 1 55
2019-06-19 07:00:00 19.1 15 Sudoeste 24 Sudoeste 0 947.6 0.6 57
2019-06-19 06:00:00 19.6 16 Sudoeste 28 Sudoeste 0 947.5 0.5 60
2019-06-19 05:00:00 20.3 20 Sudoeste 28 Sudoeste 0 947 0.1 57
2019-06-19 04:00:00 21 17 Sudoeste 22 Sudoeste 0 947 0.1 54
2019-06-19 03:00:00 21.8 12 Sudoeste 33 Oeste 0 947 0.1 48
2019-06-19 02:00:00 22.5 19 Sudoeste 28 Oeste 0 946.9 0.1 43
2019-06-19 01:00:00 23.2 17 Oeste 24 Oeste 0 946.9 0.5 39
2019-06-19 00:00:00 23.7 15 Oeste 30 Oeste 0 946.9 1 38
2019-06-18 23:00:00 24.1 21 Oeste 33 Oeste 0 946.8 1.5 37
2019-06-18 22:00:00 25.1 19 Oeste 42 Sudoeste 0 946.4 1.4 35
2019-06-18 21:00:00 27.4 30 Sudoeste 50 Oeste 0 945.9 0.9 25
2019-06-18 20:00:00 29.2 28 Sudoeste 48 Sudoeste 0 945.3 0.1 15
2019-06-18 19:00:00 30.4 30 Sudoeste 46 Sur 0 945 -0.7 10
2019-06-18 18:00:00 31 26 Sudoeste 46 Oeste 0 945 -1.1 9
2019-06-18 17:00:00 31 24 Sudoeste 52 Sudoeste 0 945.2 -1.7 9
2019-06-18 16:00:00 31 28 Sudoeste 45 Sur 0 945.7 -1.7 10
2019-06-18 15:00:00 30.4 27 Sur 41 Sur 0 946.1 -1.5 12
2019-06-18 14:00:00 28.8 22 Sur 41 Sur 0 946.9 -0.6 12
2019-06-18 13:00:00 27.9 17 Sur 41 Sudoeste 0 947.4 -0.3 15
2019-06-18 12:00:00 27.1 15 Sudoeste 45 Sudoeste 0 947.6 0.3 18
2019-06-18 11:00:00 26.1 19 Sur 48 Sur 0 947.5 0.4 17
2019-06-18 10:00:00 24.9 16 Sudoeste 33 Sudoeste 0 947.7 1.1 22
2019-06-18 09:00:00 23.9 20 Sudoeste 32 Sudoeste 0 947.3 1.3 24
2019-06-18 08:00:00 19.1 9 Sudeste 13 Sudeste 0 947.1 1.2 31
2019-06-18 07:00:00 19.5 9 Este 15 Sudoeste 0 946.6 0.9 30
2019-06-18 06:00:00 21.5 11 Sudoeste 18 Sudoeste 0 946 -0.5 25
2019-06-18 05:00:00 21.4 11 Sur 15 Sur 0 945.9 -0.6 26
2019-06-18 04:00:00 21.9 9 Sudeste 13 Nordeste 0 945.7 -0.8 27
2019-06-18 03:00:00 22.5 4 Norte 9 Nordeste 0 946.5 0.2 26
2019-06-18 02:00:00 23.7 5 Sudeste 8 Sudeste 0 946.5 0.2 23
2019-06-18 01:00:00 26.1 3 Este 15 Oeste 0 946.5 0.9 19
2019-06-18 00:00:00 27.7 10 Oeste 18 Oeste 0 946.3 0.8 17
2019-06-17 23:00:00 28.3 15 Oeste 28 Sudoeste 0 946.3 0.8 16
2019-06-17 22:00:00 29.5 17 Oeste 33 Sudoeste 0 945.6 0 16
2019-06-17 21:00:00 30.5 18 Sur 35 Sudoeste 0 945.5 -0.7 12
2019-06-17 20:00:00 31.1 10 Sur 33 Sur 0 945.5 -1.5 13
2019-06-17 19:00:00 32.2 20 Sur 42 Sudoeste 0 945.6 -2 13
2019-06-17 18:00:00 31.9 14 Sur 37 Sur 0 946.2 -2 14
2019-06-17 17:00:00 31.7 21 Sur 52 Sur 0 947 -2.1 12
2019-06-17 16:00:00 31.1 10 Sudoeste 42 Sur 0 947.6 -2.1 13
2019-06-17 15:00:00 30.7 19 Sudoeste 39 Sudoeste 0 948.2 -1.9 14
2019-06-17 14:00:00 29.9 16 Sur 35 Sur 0 949.1 -1.3 17
2019-06-17 13:00:00 28.7 10 Sudeste 21 Sur 0 949.7 -0.8 17
2019-06-17 12:00:00 26.3 3 Sudoeste 17 Sudoeste 0 950.1 -0.6 28
2019-06-17 11:00:00 23.9 8 Sur 15 Sur 0 950.4 0 34
2019-06-17 10:00:00 21.7 6 Sur 13 Sur 0 950.5 0.5 38
2019-06-17 09:00:00 18.1 4 Norte 9 Noroeste 0 950.7 0.9 38
2019-06-17 08:00:00 14.4 6 Noroeste 11 Norte 0 950.4 1 43
2019-06-17 07:00:00 12.8 8 Norte 11 Norte 0 950 0.5 44
2019-06-17 06:00:00 13.9 7 Noroeste 9 Noroeste 0 949.8 0.3 40
2019-06-17 05:00:00 15 8 Noroeste 11 Noroeste 0 949.4 -0.3 38
2019-06-17 04:00:00 17.7 4 Nordeste 11 Este 0 949.5 -0.2 44
2019-06-17 03:00:00 19.1 8 Este 11 Sudeste 0 949.5 -0.1 39
2019-06-17 02:00:00 20.3 6 Este 13 Sudeste 0 949.7 0.4 33
2019-06-17 01:00:00 20.4 9 Este 17 Este 0 949.7 1.1 27
2019-06-17 00:00:00 20.7 5 Noroeste 8 Noroeste 0 949.6 1.3 24
2019-06-16 23:00:00 22 0 Calma 5 Este 0 949.3 1.1 22
2019-06-16 22:00:00 25.4 5 Noroeste 21 Oeste 0 948.6 0.3 18
2019-06-16 21:00:00 27.9 15 Oeste 24 Oeste 0 948.3 0 15
2019-06-16 20:00:00 29.9 15 Sudoeste 24 Oeste 0 948.2 -0.8 14
2019-06-16 19:00:00 29.4 15 Oeste 32 Oeste 0 948.3 -1.3 15
2019-06-16 18:00:00 30.2 11 Sudoeste 26 Sudoeste 0 948.3 -1.8 17
2019-06-16 17:00:00 29.7 10 Sudoeste 21 Sur 0 949 -1.8 17
2019-06-16 16:00:00 29.1 8 Sudoeste 26 Sudoeste 0 949.6 -1.7 19
2019-06-16 15:00:00 28.6 5 Sur 22 Sur 0 950.1 -1.6 19
2019-06-16 14:00:00 27.5 7 Sudoeste 22 Sudoeste 0 950.8 -1.1 20
2019-06-16 13:00:00 26.2 8 Oeste 21 Sudeste 0 951.3 -1 22
2019-06-16 12:00:00 24.7 8 Sudoeste 17 Sur 0 951.7 -0.5 24
2019-06-16 11:00:00 22.6 6 Sur 15 Sudoeste 0 951.9 0.1 28
2019-06-16 10:00:00 19.8 5 Norte 13 Norte 0 952.3 0.9 36
2019-06-16 09:00:00 16.6 5 Norte 9 Norte 0 952.2 1.1 44
2019-06-16 08:00:00 12.8 4 Norte 9 Norte 0 951.8 0.7 56
2019-06-16 07:00:00 11.2 7 Norte -- -- 0 951.4 0.1 54
2019-06-16 06:00:00 11.9 6 Norte 9 Norte 0 951.1 -0.2 50
2019-06-16 05:00:00 11.1 5 Noroeste 8 Norte 0 951.1 -0.4 49
2019-06-16 04:00:00 12.7 4 Norte 8 Noroeste 0 951.3 -0.2 42
2019-06-16 03:00:00 13.8 7 Noroeste 9 Noroeste 0 951.3 0 41
2019-06-16 02:00:00 15.3 8 Norte 11 Norte 0 951.5 0.4 37
2019-06-16 01:00:00 16.8 5 Norte 9 Norte 0 951.5 1.2 32
2019-06-16 00:00:00 18.8 5 Sudeste 13 Sur 0 951.3 1.3 27
2019-06-15 23:00:00 22.2 12 Sur 18 Sur 0 951.1 1.3 21
2019-06-15 22:00:00 23.2 10 Sur 21 Sur 0 950.3 0.5 21
2019-06-15 21:00:00 25.3 13 Sur 22 Sur 0 950 0.1 19
2019-06-15 20:00:00 26 7 Sur 21 Sur 0 949.8 -0.6 19
2019-06-15 19:00:00 26.3 12 Sur 24 Sur 0 949.8 -0.8 19
2019-06-15 18:00:00 26.4 10 Sur 26 Sur 0 949.9 -1.1 19
2019-06-15 17:00:00 25.9 10 Sur 35 Sur 0 950.4 -1.1 19
2019-06-15 16:00:00 24.9 12 Sudoeste 26 Sur 0 950.6 -1.3 20
2019-06-15 15:00:00 24 10 Sur 22 Sur 0 951 -1 24
2019-06-15 14:00:00 22.8 5 Este 24 Sudoeste 0 951.5 -0.4 27
2019-06-15 13:00:00 21.6 9 Sur 24 Sur 0 951.9 -0.1 28
2019-06-15 12:00:00 20.6 9 Sudoeste 21 Nordeste 0 952 0.4 31
2019-06-15 11:00:00 19 6 Sur 15 Sudeste 0 951.9 0.7 36
2019-06-15 10:00:00 17.7 8 Norte 17 Norte 0 952 1.3 39
2019-06-15 09:00:00 15.7 3 Este 13 Este 0 951.6 1.7 45
2019-06-15 08:00:00 11.8 5 Este 9 Este 0 951.2 1.6 57
2019-06-15 07:00:00 11.8 5 Este 13 Este 0 950.7 1.3 54
2019-06-15 06:00:00 13.3 5 Sudeste 24 Sudoeste 0 949.9 0.7 49
2019-06-15 05:00:00 14.7 20 Sudoeste 28 Sudoeste 0 949.6 0.5 45
2019-06-15 04:00:00 15.3 21 Sudoeste 32 Sudoeste 0 949.4 0.3 42
2019-06-15 03:00:00 15.9 20 Sudoeste 28 Sudoeste 0 949.2 0.8 40
2019-06-15 02:00:00 16.6 21 Sudoeste 30 Sudoeste 0 949.1 0.9 38
2019-06-15 01:00:00 17.5 22 Sudoeste 37 Sudoeste 0 949.1 1.9 36
2019-06-15 00:00:00 18.8 26 Sudoeste 39 Sudoeste 0 948.4 2 33
2019-06-14 23:00:00 19.6 20 Sudoeste 39 Sudoeste 0 948.2 2.6 31
2019-06-14 22:00:00 20.5 24 Sudoeste 45 Sudoeste 0 947.2 2.3 28
2019-06-14 21:00:00 22.3 29 Sudoeste 42 Sudoeste 0 946.4 1.6 23
2019-06-14 20:00:00 24 27 Sudoeste 48 Sudoeste 0 945.6 0.7 21
2019-06-14 19:00:00 24.4 27 Sudoeste 52 Sudoeste 0 944.9 -0.1 19
2019-06-14 18:00:00 25.3 29 Sudoeste 54 Sudoeste 0 944.8 -0.3 20
2019-06-14 17:00:00 25.4 32 Sudoeste 52 Sur 0 944.9 -0.4 21
2019-06-14 16:00:00 25.8 27 Sudoeste 65 Sudoeste 0 945 0 18
2019-06-14 15:00:00 25.2 26 Sudoeste 52 Sudoeste 0 945.1 0.1 21
2019-06-14 14:00:00 24.6 28 Sudoeste 59 Sudoeste 0 945.3 0.3 21
2019-06-14 13:00:00 23.6 22 Sudoeste 48 Sudoeste 0 945 0.2 26
2019-06-14 12:00:00 23 19 Sudoeste 48 Sudoeste 0 945 0.2 28
2019-06-14 11:00:00 22.3 26 Sudoeste 45 Oeste 0 945 0.9 29
2019-06-14 10:00:00 20.9 24 Sudoeste 39 Sudoeste 0 944.8 1 30
2019-06-14 09:00:00 18.4 9 Sudoeste 21 Sudoeste 0 944.8 1.5 34
2019-06-14 08:00:00 13.4 4 Norte 9 Sudeste 0 944.1 1 42
2019-06-14 07:00:00 12.4 5 Noroeste 11 Noroeste 0 943.8 0.9 43
2019-06-14 06:00:00 15.5 7 Noroeste 13 Sur 0 943.3 0.1 44
2019-06-14 05:00:00 17.7 10 Sur 18 Sur 0 943.1 0 52
2019-06-14 04:00:00 17.5 10 Sudeste 15 Sur 0 942.9 -0.3 48
2019-06-14 03:00:00 18 8 Sudeste 13 Sudeste 0 943.2 0.5 30
2019-06-14 02:00:00 19.1 6 Sudeste 15 Sudeste 0 943.1 1 28
2019-06-14 01:00:00 20.9 13 Sudeste 18 Sudeste 0 943.2 1.8 25
2019-06-14 00:00:00 20.9 6 Norte 15 Noroeste 0 942.7 1.9 25
2019-06-13 23:00:00 23.1 10 Noroeste 28 Oeste 0 942.1 1.9 20
2019-06-13 22:00:00 24.3 21 Oeste 42 Oeste 0 941.4 1.1 20
2019-06-13 21:00:00 26.6 22 Oeste 39 Oeste 0 940.8 0.2 18
2019-06-13 20:00:00 28 22 Sudoeste 30 Sudoeste 0 940.2 -0.6 16
2019-06-13 19:00:00 28.6 24 Sudoeste 35 Sur 0 940.3 -1.1 14
2019-06-13 18:00:00 28.8 22 Sur 42 Sudoeste 0 940.6 -1.5 15
2019-06-13 17:00:00 28.3 19 Sur 50 Sudoeste 0 940.8 -1.9 17
2019-06-13 16:00:00 28.2 15 Sudeste 46 Sudoeste 0 941.4 -1.9 18
2019-06-13 15:00:00 27.6 27 Sur 39 Sudoeste 0 942.1 -1.8 19
2019-06-13 14:00:00 26.9 19 Sur 42 Sur 0 942.7 -1.4 24
2019-06-13 13:00:00 24.8 16 Sur 37 Sur 0 943.3 -1.2 30
2019-06-13 12:00:00 22.6 5 Sur 26 Sudoeste 0 943.9 -0.5 41
2019-06-13 11:00:00 20.5 9 Sudeste 24 Sudeste 0 944.1 0.1 49
2019-06-13 10:00:00 18.8 8 Este 17 Este 0 944.5 0.5 55
2019-06-13 09:00:00 15.9 9 Norte 13 Norte 0 944.4 1 53
2019-06-13 08:00:00 12.2 10 Noroeste 13 Noroeste 0 944 1 55
2019-06-13 07:00:00 11 8 Noroeste 13 Norte 0 944 1.2 61
2019-06-13 06:00:00 11.6 7 Norte 15 Norte 0 943.4 0.5 56
2019-06-13 05:00:00 14.7 6 Este 26 Sudeste 0 943 0.1 64
2019-06-13 04:00:00 15.4 17 Sudeste 26 Sudeste 0 942.8 -0.1 57
2019-06-13 03:00:00 16.2 12 Sudeste 28 Sudeste 0 942.9 0.2 55
2019-06-13 02:00:00 16.4 13 Sudeste 21 Sudeste 0 942.9 0.2 52
2019-06-13 01:00:00 15.4 5 Este 24 Este 0 942.9 0.7 28
2019-06-13 00:00:00 16.8 4 Este 5 Sudeste 0 942.7 0.6 26
2019-06-12 23:00:00 20.7 3 Sudoeste 21 Sudoeste 0 942.7 0.4 19
2019-06-12 22:00:00 22.6 9 Oeste 22 Sudoeste 0 942.2 -0.3 17
2019-06-12 21:00:00 24.7 6 Sudoeste 30 Sudoeste 0 942.1 -0.9 15
2019-06-12 20:00:00 25.4 12 Sur 30 Oeste 0 942.3 -1 13
2019-06-12 19:00:00 25.6 17 Sudoeste 37 Sudoeste 0 942.5 -1.6 11
2019-06-12 18:00:00 25.4 14 Sur 33 Sur 0 943 -1.9 14
2019-06-12 17:00:00 24.8 18 Sudeste 37 Sur 0 943.3 -2.4 15
2019-06-12 16:00:00 24.6 11 Sur 37 Sur 0 944.1 -2.3 16
2019-06-12 15:00:00 23.3 14 Sur 26 Sur 0 944.9 -2.2 17
2019-06-12 14:00:00 22.6 9 Sudoeste 35 Sudoeste 0 945.7 -1.8 19
2019-06-12 13:00:00 21.1 8 Sur 28 Sur 0 946.4 -1.3 25
2019-06-12 12:00:00 19.2 11 Sudeste 22 Sudeste 0 947.1 -0.6 32
2019-06-12 11:00:00 16.9 7 Sur 17 Sur 0 947.5 0 38
2019-06-12 10:00:00 14.4 4 Noroeste 11 Norte 0 947.7 0.5 43
2019-06-12 09:00:00 11.6 5 Norte 11 Noroeste 0 947.7 0.8 49
2019-06-12 08:00:00 7.3 0 Calma 5 Norte 0 947.5 0.7 61
2019-06-12 07:00:00 5.7 0 Calma 11 Norte 0 947.2 0.2 62
2019-06-12 06:00:00 6.6 4 Noroeste 9 Norte 0 946.9 -0.1 56
2019-06-12 05:00:00 7.8 8 Norte 11 Noroeste 0 946.8 -0.3 51
2019-06-12 04:00:00 8.7 9 Noroeste 11 Noroeste 0 947 -0.2 47
2019-06-12 03:00:00 9.8 7 Norte 13 Noroeste 0 947 -0.3 43
2019-06-12 02:00:00 11.3 8 Noroeste 17 Norte 0 947.1 -0.2 38
2019-06-12 01:00:00 12.8 3 Nordeste 11 Norte 0 947.2 0.3 32
2019-06-12 00:00:00 13.9 5 Este 11 Este 0 947.3 0.9 30
2019-06-11 23:00:00 15.2 5 Norte 13 Norte 0 947.3 1.3 29
2019-06-11 22:00:00 17.2 10 Norte 30 Norte 0 946.9 1.3 25
2019-06-11 21:00:00 19.7 17 Norte 33 Norte 0 946.4 0.9 20
2019-06-11 20:00:00 20.7 22 Norte 33 Noroeste 0 946 0.4 20
2019-06-11 19:00:00 21.3 24 Norte 37 Noroeste 0 945.6 -0.2 19
2019-06-11 18:00:00 21.1 24 Norte 42 Norte 0 945.5 -0.4 19
2019-06-11 17:00:00 22 19 Norte 45 Norte 0 945.6 -0.4 18
2019-06-11 16:00:00 21 30 Norte 45 Norte 0 945.8 0 25
2019-06-11 15:00:00 21 18 Norte 42 Norte 0 945.9 0.3 26
2019-06-11 14:00:00 19.2 26 Norte 45 Norte 0 946 1 31
2019-06-11 13:00:00 18 20 Norte 35 Norte 0 945.8 1.1 38
2019-06-11 12:00:00 16.3 23 Norte 39 Norte 0 945.6 1.3 42
2019-06-11 11:00:00 17.5 18 Norte 30 Nordeste 0 945 1.1 42
2019-06-11 10:00:00 16.5 15 Nordeste 41 Nordeste 0 944.7 1 45
2019-06-11 09:00:00 15.4 22 Norte 45 Nordeste 0 944.3 1 49
2019-06-11 08:00:00 15.8 18 Nordeste 32 Nordeste 0 943.9 0.4 46
2019-06-11 07:00:00 15.1 6 Este 13 Nordeste 0 943.7 -0.3 44
2019-06-11 06:00:00 15.6 6 Este 11 Sudeste 0 943.3 -1.1 40
2019-06-11 05:00:00 15.7 9 Este 13 Este 0 943.5 -1.4 40
2019-06-11 04:00:00 15.9 5 Este 11 Sudeste 0 944 -1.2 38
2019-06-11 03:00:00 15.9 3 Norte -- -- -- 944.4 -1 37
2019-06-11 02:00:00 16.6 5 Este 13 Oeste 0 944.9 -0.3 34
2019-06-11 01:00:00 16.3 2 Nordeste 9 Norte 0 945.2 0.4 28
2019-06-11 00:00:00 17.7 6 Nordeste 15 Oeste 0 945.4 0.9 25
2019-06-10 23:00:00 21.2 12 Oeste 22 Noroeste 0 945.2 0.6 19
2019-06-10 22:00:00 22.5 20 Noroeste 33 Noroeste 0 944.8 -0.3 17
2019-06-10 21:00:00 24.5 22 Noroeste 39 Noroeste 0 944.5 -0.9 16
2019-06-10 20:00:00 25.7 22 Oeste 39 Oeste 0 944.6 -1.2 16
2019-06-10 19:00:00 26.8 27 Oeste 39 Oeste 0 945.1 -1.3 16
2019-06-10 18:00:00 27 24 Oeste 35 Oeste 0 945.4 -1.7 15
2019-06-10 17:00:00 27.1 17 Oeste 35 Oeste 0 945.8 -2.1 17
2019-06-10 16:00:00 26.1 4 Nordeste 26 Sur 0 946.4 -2.1 23
2019-06-10 15:00:00 25.2 9 Oeste 28 Sudoeste 0 947.1 -1.6 26
2019-06-10 14:00:00 24.4 11 Sudoeste 24 Sudoeste 0 947.9 -1.2 28
2019-06-10 13:00:00 23.6 4 Oeste 24 Sudoeste 0 948.5 -0.8 29
2019-06-10 12:00:00 22.1 7 Sudoeste 17 Oeste 0 948.7 -0.6 33
2019-06-10 11:00:00 20.7 6 Nordeste 15 Nordeste 0 949.1 0 38
2019-06-10 10:00:00 18.9 8 Norte 17 Norte 0 949.3 0.1 46
2019-06-10 09:00:00 17 7 Nordeste 13 Nordeste 0 949.3 0.7 54
2019-06-10 08:00:00 13.7 5 Este 9 Este 0 949.1 0.6 64
2019-06-10 07:00:00 12.6 5 Nordeste 9 Este 0 949.2 0.2 64
2019-06-10 06:00:00 14.1 5 Este 13 Este 0 948.6 -0.4 56
2019-06-10 05:00:00 15.1 7 Este 13 Este 0 948.5 -0.3 48
2019-06-10 04:00:00 15.7 4 Sur 11 Este 0 949 0.6 40
2019-06-10 03:00:00 16.3 8 Este -- -- -- 949 1 37
2019-06-10 02:00:00 16.4 5 Nordeste 9 Nordeste 0 948.8 1.2 37
2019-06-10 01:00:00 19.1 4 Norte 24 Oeste 0 948.4 1.7 32
2019-06-10 00:00:00 21.1 18 Oeste 26 Oeste 0 948 1.6 29
2019-06-09 23:00:00 22.7 18 Oeste 28 Oeste 0 947.6 1.5 24
2019-06-09 22:00:00 24 16 Oeste 42 Sudoeste 0 946.7 0.7 23
2019-06-09 21:00:00 25 27 Sudoeste 41 Sudoeste 0 946.4 0.1 19
2019-06-09 20:00:00 26.6 25 Sudoeste 39 Sudoeste 0 946.1 -0.6 15
2019-06-09 19:00:00 27.2 23 Sudoeste 42 Sudoeste 0 946 -1.3 15
2019-06-09 18:00:00 27.7 23 Sur 46 Sudoeste 0 946.3 -1.4 15
2019-06-09 17:00:00 27.6 25 Sudoeste 54 Oeste 0 946.7 -1.7 16
2019-06-09 16:00:00 27.4 25 Sudoeste 50 Sudoeste 0 947.3 -1.5 15
2019-06-09 15:00:00 26.9 23 Sudoeste 50 Sudoeste 0 947.7 -1.4 15
2019-06-09 14:00:00 26.4 23 Sudoeste 48 Sudoeste 0 948.4 -1 19
2019-06-09 13:00:00 25.4 21 Sudoeste 42 Sudoeste 0 948.8 -0.9 22
2019-06-09 12:00:00 24 11 Oeste 35 Sudoeste 0 949.1 -0.8 30
2019-06-09 11:00:00 21.9 4 Noroeste 18 Sudoeste 0 949.4 -0.2 40
2019-06-09 10:00:00 19.4 5 Sudoeste 21 Sur 0 949.7 0.1 48
2019-06-09 09:00:00 16.7 3 Noroeste 9 Nordeste 0 949.9 0.4 56
2019-06-09 08:00:00 13.3 6 Norte 9 Norte 0 949.6 -0.1 69
2019-06-09 07:00:00 12.1 0 Calma 13 Sudeste 0 949.6 -0.1 69
2019-06-09 06:00:00 14.2 8 Sudeste 11 Este 0 949.5 0 64
2019-06-09 05:00:00 14.4 5 Este 9 Este 0 949.7 -0.1 63
2019-06-09 04:00:00 15.7 6 Norte 24 Sur 0 949.7 -0.2 59
2019-06-09 03:00:00 17.8 16 Sur -- -- -- 949.5 -0.3 52
2019-06-09 02:00:00 18 14 Sudeste 22 Sur 0 949.8 0.2 53
2019-06-09 01:00:00 19.3 14 Sudeste 33 Sur 0 949.9 1.3 50
2019-06-09 00:00:00 20.6 21 Sudeste 39 Oeste 0 949.8 1.7 47
2019-06-08 23:00:00 22.3 22 Sudeste 35 Sudeste 0 949.6 1.9 43
2019-06-08 22:00:00 23.7 23 Sudeste 33 Sudeste 0 948.6 1.2 39
2019-06-08 21:00:00 25.7 25 Sudeste 39 Sudeste 0 948.1 0.5 35
2019-06-08 20:00:00 28.2 15 Sur 32 Sur 0 947.7 -0.3 16
2019-06-08 19:00:00 28.9 23 Sudoeste 45 Sudoeste 0 947.4 -1.7 13
2019-06-08 18:00:00 29.3 16 Sur 48 Sudoeste 0 947.6 -2.3 16
2019-06-08 17:00:00 28.4 28 Sudeste 45 Sur 0 948 -2.7 27
2019-06-08 16:00:00 28.8 22 Sur 39 Sur 0 949.1 -2 27
2019-06-08 15:00:00 27.4 19 Sur 37 Sudeste 0 949.9 -2 28
2019-06-08 14:00:00 25.6 18 Sudeste 41 Sur 0 950.7 -2 33
2019-06-08 13:00:00 26 20 Sudeste 46 Sudeste 0 951.1 -1.9 33
2019-06-08 12:00:00 23 6 Sur 18 Sudeste 0 951.9 -1.6 29
2019-06-08 11:00:00 21.3 10 Sudeste 18 Este 0 952.7 -0.8 30
2019-06-08 10:00:00 17.1 9 Norte 17 Norte 0 953 -0.3 34
2019-06-08 09:00:00 13.8 11 Norte 17 Noroeste 0 953.5 0.4 40
2019-06-08 08:00:00 10.9 14 Noroeste 21 Norte 0 953.5 0.4 47
2019-06-08 07:00:00 9.6 9 Norte 18 Noroeste 0 953.3 0.2 50
2019-06-08 06:00:00 10.2 13 Noroeste 17 Norte 0 953.1 -0.1 48
2019-06-08 05:00:00 11.2 11 Norte 18 Noroeste 0 953.1 0.1 45
2019-06-08 04:00:00 12.3 14 Noroeste 18 Noroeste 0 953.1 0.2 41
2019-06-08 03:00:00 12.8 12 Noroeste -- -- -- 953.2 0.8 40
2019-06-08 02:00:00 13.5 6 Norte 11 Norte 0 953 0.9 37
2019-06-08 01:00:00 13.5 4 Nordeste 13 Este 0 952.9 1.6 37
2019-06-08 00:00:00 16.1 12 Norte 22 Norte 0 952.4 1.6 32
2019-06-07 23:00:00 17.2 13 Norte 18 Norte 0 952.1 1.6 30
2019-06-07 22:00:00 17.8 6 Norte 11 Oeste 0 951.3 1.2 29
2019-06-07 21:00:00 21.6 5 Oeste 17 Oeste 0 950.8 0.9 22
2019-06-07 20:00:00 22.4 7 Oeste 24 Noroeste 0 950.5 0.7 21
2019-06-07 19:00:00 22.3 13 Oeste 30 Noroeste 0 950.1 0.2 20
2019-06-07 18:00:00 22.3 13 Oeste 30 Sudoeste 0 949.9 0.3 22
2019-06-07 17:00:00 22 17 Oeste 32 Oeste 0 949.8 0.1 21
2019-06-07 16:00:00 21.3 14 Oeste 33 Oeste 0 949.9 0.5 24
2019-06-07 15:00:00 20.5 18 Sudoeste 33 Oeste 0 949.6 0.7 24
2019-06-07 14:00:00 19 14 Oeste 35 Oeste 0 949.7 1.3 29
2019-06-07 13:00:00 18.1 19 Oeste 35 Oeste 0 949.4 1.6 32
2019-06-07 12:00:00 17 19 Oeste 39 Oeste 0 948.9 1.6 37
2019-06-07 11:00:00 15.6 23 Oeste 46 Oeste 0 948.4 1.6 40
2019-06-07 10:00:00 14 25 Oeste 37 Oeste 0 947.8 2.1 45
2019-06-07 09:00:00 12.5 24 Oeste 42 Sudoeste 0 947.3 2.8 51
2019-06-07 08:00:00 11.1 22 Oeste 45 Oeste 0 946.8 3.4 60
2019-06-07 07:00:00 10.9 19 Oeste 30 Oeste 0 945.7 3.2 66
2019-06-07 06:00:00 11.1 16 Oeste 33 Sudoeste 0.3 944.5 2.3 83
2019-06-07 05:00:00 13 26 Sudoeste 50 Oeste 2.1 943.4 1.4 83
2019-06-07 04:00:00 15.6 36 Sudoeste 52 Sudoeste 0 942.5 0.9 70
2019-06-07 03:00:00 16.2 28 Sudoeste -- -- -- 942.2 0.7 65
2019-06-07 02:00:00 17.5 31 Sudoeste 50 Sudoeste 0.1 942 0.9 54
2019-06-07 01:00:00 19 23 Sur 54 Sudoeste 0 941.6 1.1 36
2019-06-07 00:00:00 20.3 23 Sudoeste 39 Sudoeste 0 941.5 1 28
2019-06-06 23:00:00 20.9 29 Sudoeste 48 Sudoeste 0 941.1 0.6 25
2019-06-06 22:00:00 21.5 30 Sudoeste 48 Sudoeste 0 940.5 -0.1 23
2019-06-06 21:00:00 23 30 Sudoeste 58 Sudoeste 0 940.5 -1 20
2019-06-06 20:00:00 24.2 30 Sudoeste 45 Sudoeste 0 940.5 -1.7 17
2019-06-06 19:00:00 24.8 32 Sudoeste 50 Sudoeste 0 940.6 -2.6 17
2019-06-06 18:00:00 25.4 35 Sur 59 Sudoeste 0 941.5 -2.4 15
2019-06-06 17:00:00 25 30 Sudoeste 58 Sudoeste 0 942.2 -2.1 15
2019-06-06 16:00:00 23.7 26 Sudoeste 59 Sur 0 943.2 -1.9 16
2019-06-06 15:00:00 23.9 29 Sur 58 Sur 0 943.9 -1.7 15
2019-06-06 14:00:00 22.5 25 Sur 63 Sudoeste 0 944.3 -1.6 20
2019-06-06 13:00:00 21.1 27 Sur 54 Sur 0 945.1 -1.1 21
2019-06-06 12:00:00 19.9 22 Sur 46 Sudoeste 0 945.6 -0.9 27
2019-06-06 11:00:00 18.1 18 Sur 39 Sur 0 945.9 -0.7 33
2019-06-06 10:00:00 16.9 15 Sur 26 Sudoeste 0 946.2 -0.3 37
2019-06-06 09:00:00 13.7 3 Este 9 Norte 0 946.5 0 43
2019-06-06 08:00:00 9.4 5 Norte 8 Norte 0 946.6 0.3 56
2019-06-06 07:00:00 8.4 5 Norte 8 Norte 0 946.5 0.2 57
2019-06-06 06:00:00 9.8 2 Sudeste 8 Este 0 946.5 0.2 49
2019-06-06 05:00:00 10.2 5 Este 9 Este 0 946.3 0.1 48
2019-06-06 04:00:00 11.5 7 Norte 8 Norte 0 946.3 0 44
2019-06-06 03:00:00 13 8 Nordeste -- -- -- 946.3 0.1 37
2019-06-06 02:00:00 14.7 3 Norte 13 Oeste 0 946.2 0.2 36
2019-06-06 01:00:00 17.4 12 Oeste 21 Oeste 0 946.3 0.9 31
2019-06-06 00:00:00 17.3 9 Oeste 17 Oeste 0 946.2 1 29
2019-06-05 23:00:00 18 17 Noroeste 24 Oeste 0 946 1.3 27
2019-06-05 22:00:00 19 21 Noroeste 28 Noroeste 0 945.4 0.7 24
2019-06-05 21:00:00 19.8 17 Noroeste 28 Noroeste 0 945.2 0.4 22
2019-06-05 20:00:00 21.2 18 Noroeste 37 Oeste 0 944.7 -0.3 20
2019-06-05 19:00:00 21.6 21 Noroeste 41 Oeste 0 944.7 -0.4 20
2019-06-05 18:00:00 21.2 20 Oeste 41 Noroeste 0 944.8 -0.3 22
2019-06-05 17:00:00 22.4 24 Oeste 45 Oeste 0 945 -0.5 19
2019-06-05 16:00:00 22 21 Oeste 46 Oeste 0 945.1 -0.3 23
2019-06-05 15:00:00 20.4 23 Noroeste 45 Oeste 0 945.1 -0.1 26
2019-06-05 14:00:00 20.2 29 Oeste 54 Oeste 0 945.5 1 27
2019-06-05 13:00:00 19.2 28 Oeste 54 Oeste 0 945.4 1.5 30
2019-06-05 12:00:00 17.7 32 Oeste 52 Oeste 0 945.2 2.3 33
2019-06-05 11:00:00 16.2 43 Oeste 59 Oeste 0 944.5 2.5 37
2019-06-05 10:00:00 14.3 35 Oeste 54 Oeste 0 943.9 2.5 48
2019-06-05 09:00:00 14.8 36 Oeste 48 Oeste 0 942.9 1.9 48
2019-06-05 08:00:00 13.9 28 Oeste 41 Oeste 0 942 1.2 52
2019-06-05 07:00:00 13.8 24 Sudoeste 35 Sudoeste 0 941.4 0.8 55
2019-06-05 06:00:00 15 16 Oeste 37 Oeste 0 941 0.2 52
2019-06-05 05:00:00 17 23 Oeste 35 Oeste 0 940.8 -0.2 44
2019-06-05 04:00:00 17.7 22 Sudoeste 37 Sudoeste 0 940.6 -0.4 51
2019-06-05 03:00:00 18.7 25 Sudoeste -- -- -- 940.8 -0.4 51
2019-06-05 02:00:00 20.5 22 Sudoeste 33 Sudoeste 0 941 -0.1 45
2019-06-05 01:00:00 21.7 14 Oeste 21 Sudoeste 0 941 0.1 43
2019-06-05 00:00:00 22.5 14 Oeste 22 Oeste 0 941.2 0.2 39
2019-06-04 23:00:00 23.2 15 Oeste 28 Oeste 0 941.1 0 38
2019-06-04 22:00:00 23.6 22 Oeste 42 Sudoeste 0 940.9 0.1 37
2019-06-04 21:00:00 24.9 25 Oeste 48 Oeste 0 941 -0.2 35
2019-06-04 20:00:00 26.7 28 Sudoeste 50 Sudoeste 0 941.1 -0.4 29
2019-06-04 19:00:00 28.6 28 Sudoeste 50 Oeste 0 940.8 -1.5 27
2019-06-04 18:00:00 29.4 27 Sudoeste 50 Sudoeste 0 941.2 -1.6 26
2019-06-04 17:00:00 29.3 33 Sudoeste 54 Sudoeste 0 941.5 -1.9 27
2019-06-04 16:00:00 29.2 30 Sudoeste 61 Sudoeste 0 942.3 -2 26
2019-06-04 15:00:00 28.8 28 Sudoeste 59 Sudoeste 0 942.8 -1.9 29
2019-06-04 14:00:00 28.3 29 Sur 50 Sur 0 943.4 -1.5 27
2019-06-04 13:00:00 27.1 29 Sudoeste 54 Sudoeste 0 944.3 -0.8 28
2019-06-04 12:00:00 26.2 27 Sudoeste 45 Sur 0 944.7 -0.3 35
2019-06-04 11:00:00 24.8 21 Sudoeste 42 Sudoeste 0 944.9 0.1 40
2019-06-04 10:00:00 23.3 22 Sudoeste 37 Sudoeste 0 945.1 0.3 47
2019-06-04 09:00:00 21.9 12 Sur 18 Sur 0 945 0.5 53
2019-06-04 08:00:00 19.4 13 Sur 26 Sur 0 944.8 0.2 58
2019-06-04 07:00:00 18 9 Sudeste 13 Sur 0 944.8 0.1 52
2019-06-04 06:00:00 18.4 9 Sudeste 13 Sudeste 0 944.5 -0.5 40
2019-06-04 05:00:00 18.4 11 Sudeste 15 Sudeste 0 944.6 -0.9 36
2019-06-04 04:00:00 19 5 Nordeste 11 Este 0 944.7 -1 32
2019-06-04 03:00:00 19.2 4 Este 11 Este 0 945 -0.8 31
2019-06-04 02:00:00 19.9 5 Este 8 Sudeste 0 945.5 -0.4 30
2019-06-04 01:00:00 24.4 5 Norte 15 Oeste 0 945.7 0.1 23
2019-06-04 00:00:00 26.9 11 Sudoeste 15 Sudoeste 0 945.8 0.3 18
2019-06-03 23:00:00 27.8 9 Oeste 30 Sudoeste 0 945.9 0.5 17
2019-06-03 22:00:00 29.3 12 Sudoeste 39 Sudoeste 0 945.6 -0.1 16
2019-06-03 21:00:00 31.3 19 Sudoeste 39 Sudoeste 0 945.5 -0.7 15
2019-06-03 20:00:00 32.7 22 Sudoeste 37 Oeste 0 945.4 -1.4 13
2019-06-03 19:00:00 33.2 23 Sudoeste 41 Oeste 0 945.7 -1.5 12
2019-06-03 18:00:00 33.5 23 Sudoeste 50 Sudoeste 0 946.2 -1.7 12
2019-06-03 17:00:00 33.7 33 Sudoeste 55 Sudoeste 0 946.8 -1.6 12
2019-06-03 16:00:00 32.7 30 Sudoeste 54 Sudoeste 0 947.2 -1.8 13
2019-06-03 15:00:00 33.3 31 Sudoeste 42 Sudoeste 0 947.9 -1.7 13
2019-06-03 14:00:00 32.9 22 Sudoeste 41 Sudoeste 0 948.4 -1.4 13
2019-06-03 13:00:00 30.6 10 Sudoeste 32 Sudeste 0 949 -0.7 17
2019-06-03 12:00:00 28.2 8 Sur 18 Sur 0 949.6 0 24
2019-06-03 11:00:00 25.6 6 Sudeste 15 Sur 0 949.8 0.2 28
2019-06-03 10:00:00 24 7 Sudeste 15 Sudeste 0 949.7 0.4 30
2019-06-03 09:00:00 21.7 5 Este 11 Este 0 949.6 0.7 36
2019-06-03 08:00:00 17.4 2 Norte 8 Norte 0 949.6 0.7 48
2019-06-03 07:00:00 16.9 6 Noroeste 11 Noroeste 0 949.3 0.6 47
2019-06-03 06:00:00 17.7 8 Norte 11 Norte 0 948.9 0.1 45
2019-06-03 05:00:00 18.9 3 Sur 9 Norte 0 948.9 0 40
2019-06-03 04:00:00 20.5 9 Norte 18 Norte 0 948.7 -0.3 39
2019-06-03 03:00:00 22.1 7 Norte 11 Nordeste 0 948.8 -0.2 34
2019-06-03 02:00:00 23.7 3 Este 9 Nordeste 0 948.9 0.4 30
2019-06-03 01:00:00 24.1 0 Calma 9 Este 0 949 1.1 29
2019-06-03 00:00:00 26.3 8 Norte 15 Norte 0 949 1.4 26
2019-06-02 23:00:00 29.1 11 Norte 26 Oeste 0 948.5 1 20
2019-06-02 22:00:00 30.7 21 Oeste 33 Sudoeste 0 947.9 0.4 16
2019-06-02 21:00:00 31.8 14 Sudoeste 26 Sudoeste 0 947.6 -0.3 16
2019-06-02 20:00:00 32.9 13 Sur 30 Sudoeste 0 947.5 -0.8 14
2019-06-02 19:00:00 33.6 14 Sur 28 Sur 0 947.5 -1.4 14
2019-06-02 18:00:00 34.6 9 Sur 32 Sur 0 947.9 -1.6 13
2019-06-02 17:00:00 34.5 19 Sur 39 Sur 0 948.3 -2.3 14
2019-06-02 16:00:00 34.1 12 Sudoeste 32 Sur 0 948.9 -2.5 15
2019-06-02 15:00:00 33.1 9 Sur 28 Sudoeste 0 949.5 -2.3 17
2019-06-02 14:00:00 31.2 7 Sudoeste 21 Sudoeste 0 950.6 -1.4 19
2019-06-02 13:00:00 28.7 5 Sur 18 Sudoeste 0 951.4 -0.7 23
2019-06-02 12:00:00 27.1 7 Sur 18 Sudoeste 0 951.8 -0.6 25
2019-06-02 11:00:00 25.2 9 Sur 15 Sur 0 952 -0.2 27
2019-06-02 10:00:00 23.1 9 Sudeste 15 Sudeste 0 952.1 0.2 32
2019-06-02 09:00:00 19.3 0 Calma 8 Norte 0 952.4 0.6 39
2019-06-02 08:00:00 15.7 6 Noroeste 9 Noroeste 0 952.2 0.5 49
2019-06-02 07:00:00 14.6 6 Norte 11 Norte 0 951.9 0.5 50
2019-06-02 06:00:00 15.7 6 Noroeste 11 Norte 0 951.8 0.8 47
2019-06-02 05:00:00 19 6 Norte 22 Este 0 951.7 0.8 38
2019-06-02 04:00:00 20 14 Sur 18 Sur 0 951.4 0.6 35
2019-06-02 03:00:00 21.6 12 Sudeste 18 Este 0 951 0.7 31
2019-06-02 02:00:00 23 10 Sudeste 17 Sudeste 0 950.9 0.8 27
2019-06-02 01:00:00 22.3 4 Sudeste 21 Sudeste 0 950.8 1.2 28
2019-06-02 00:00:00 24.3 2 Sudeste 8 Sudeste 0 950.3 1 25
2019-06-01 23:00:00 27.5 8 Sudeste 21 Sudoeste 0 950.1 1 19
2019-06-01 22:00:00 29.8 11 Sur 18 Sur 0 949.6 0.2 17
2019-06-01 21:00:00 32.1 8 Sur 15 Sudoeste 0 949.3 -0.6 15
2019-06-01 20:00:00 33.5 5 Sudoeste 22 Sur 0 949.1 -1.3 14
2019-06-01 19:00:00 33.4 6 Sudeste 18 Sur 0 949.4 -1.7 14
2019-06-01 18:00:00 33.9 13 Sudeste 21 Sur 0 949.9 -2 14
2019-06-01 17:00:00 33.4 7 Este 22 Sudeste 0 950.4 -2.5 15
2019-06-01 16:00:00 32.6 6 Oeste 22 Sur 0 951.1 -2.7 16
2019-06-01 15:00:00 31.6 9 Sur 28 Sur 0 951.9 -2.3 19
2019-06-01 14:00:00 30 9 Sudoeste 28 Sudoeste 0 952.9 -1.6 22
2019-06-01 13:00:00 27.9 10 Sur 28 Sudoeste 0 953.8 -1 27
2019-06-01 12:00:00 25.9 8 Sur 17 Sur 0 954.2 -0.5 31
2019-06-01 11:00:00 24 8 Sur 15 Sudoeste 0 954.5 -0.2 34
2019-06-01 10:00:00 21.6 5 Norte 9 Norte 0 954.8 0.3 38
2019-06-01 09:00:00 18.4 3 Norte 9 Norte 0 954.7 0.6 42
2019-06-01 08:00:00 14.4 7 Norte 13 Norte 0 954.7 0.7 51
2019-06-01 07:00:00 13.3 8 Nordeste 13 Nordeste 0 954.5 0.6 52
2019-06-01 06:00:00 13.8 6 Norte 11 Norte 0 954.1 0.6 51
2019-06-01 05:00:00 15 0 Calma 9 Norte 0 954 0.5 47
2019-06-01 04:00:00 17.1 6 Norte 11 Sudeste 0 953.9 0.7 41
2019-06-01 03:00:00 18.8 7 Sudeste 11 Sudeste 0 953.5 0.7 35
2019-06-01 02:00:00 19.6 0 Calma 15 Este 0 953.5 1.2 32
2019-06-01 01:00:00 21.4 5 Este 9 Sudeste 0 953.2 1.3 29
2019-06-01 00:00:00 23.2 5 Sudeste 15 Sur 0 952.8 1.1 25
2019-05-31 23:00:00 27.1 8 Sur 18 Sudoeste 0 952.3 0.7 18
2019-05-31 22:00:00 26.7 8 Sur 15 Sur 0 951.9 0.1 19
2019-05-31 21:00:00 30.4 7 Sudeste 15 Sudeste 0 951.7 -0.5 14
2019-05-31 20:00:00 31.7 11 Sudeste 21 Sudeste 0 951.6 -1.1 13
2019-05-31 19:00:00 32.6 2 Sudeste 17 Sudeste 0 951.8 -1.7 11
2019-05-31 18:00:00 32.4 9 Sudeste 18 Este 0 952.2 -1.9 12
2019-05-31 17:00:00 32 6 Sur 21 Sur 0 952.7 -1.9 14
2019-05-31 16:00:00 31.5 8 Sudeste 22 Este 0 953.5 -1.9 17
2019-05-31 15:00:00 30.8 13 Noroeste 22 Oeste 0 954.1 -1.6 19
2019-05-31 14:00:00 29 6 Oeste 15 Sudoeste 0 954.6 -1.5 23
2019-05-31 13:00:00 27.9 6 Oeste 21 Sur 0 955.4 -1 26
2019-05-31 12:00:00 26.2 8 Sur 15 Sur 0 955.7 -0.7 29
2019-05-31 11:00:00 24 4 Este 15 Este 0 956.1 -0.4 32
2019-05-31 10:00:00 21.3 5 Norte 13 Norte 0 956.4 0.3 35
2019-05-31 09:00:00 17.9 2 Norte 5 Norte 0 956.4 0.5 39
2019-05-31 08:00:00 13.4 3 Norte 9 Norte 0 956.5 0.5 53
2019-05-31 07:00:00 12.6 5 Norte 8 Norte 0 956.1 0.2 52
2019-05-31 06:00:00 13.9 2 Norte 11 Noroeste 0 955.9 -0.2 45
2019-05-31 05:00:00 14.9 6 Noroeste 9 Norte 0 956 -0.1 41
2019-05-31 04:00:00 16.2 5 Norte 11 Norte 0 955.9 -0.1 36
2019-05-31 03:00:00 18 0 Calma 17 Norte 0 956.1 0.6 31
2019-05-31 02:00:00 19.1 12 Norte 17 Norte 0 956.1 1.3 29
2019-05-31 01:00:00 21.3 10 Norte 24 Nordeste 0 956 2.2 25
2019-05-31 00:00:00 23.5 13 Nordeste 28 Nordeste 0 955.5 2.1 20
2019-05-30 23:00:00 23.8 10 Nordeste 17 Nordeste 0 954.8 1.6 19
2019-05-30 22:00:00 25.8 8 Nordeste 15 Nordeste 0 953.8 0.4 18
2019-05-30 21:00:00 29.4 9 Nordeste 21 Norte 0 953.4 -0.3 15
2019-05-30 20:00:00 30.8 10 Nordeste 21 Nordeste 0 953.2 -1 14
2019-05-30 19:00:00 31.6 10 Norte 24 Norte 0 953.4 -1.3 13
2019-05-30 18:00:00 31.5 9 Este 24 Norte 0 953.7 -1.8 13
2019-05-30 17:00:00 31.1 13 Norte 24 Norte 0 954.2 -1.7 15
2019-05-30 16:00:00 30.5 9 Este 24 Norte 0 954.7 -1.8 16
2019-05-30 15:00:00 29.2 6 Norte 28 Este 0 955.5 -1.3 19
2019-05-30 14:00:00 27.4 8 Nordeste 24 Norte 0 955.9 -1.5 23
2019-05-30 13:00:00 25.8 8 Nordeste 22 Norte 0 956.5 -1 27
2019-05-30 12:00:00 24.1 12 Nordeste 24 Nordeste 0 956.8 -0.9 29
2019-05-30 11:00:00 20.8 8 Norte 17 Norte 0 957.4 0 37
2019-05-30 10:00:00 17.8 12 Noroeste 18 Noroeste 0 957.5 0.4 42
2019-05-30 09:00:00 14.8 10 Noroeste 17 Norte 0 957.7 1 50
2019-05-30 08:00:00 12.5 10 Norte 13 Norte 0 957.4 0.8 58
2019-05-30 07:00:00 11.8 4 Norte 9 Norte 0 957.1 0.6 57
2019-05-30 06:00:00 12.7 5 Este 17 Este 0 956.7 0.1 54
2019-05-30 05:00:00 13.4 11 Este 17 Nordeste 0 956.6 -0.4 52
2019-05-30 04:00:00 14.8 11 Nordeste 21 Nordeste 0 956.5 -0.1 47
2019-05-30 03:00:00 15.6 9 Nordeste 24 Nordeste 0 956.6 0.2 44
2019-05-30 02:00:00 16.3 9 Nordeste 22 Este 0 957 1.4 42
2019-05-30 01:00:00 17.3 12 Nordeste 26 Nordeste 0 956.6 2.3 41
2019-05-30 00:00:00 18.7 11 Nordeste 21 Norte 0 956.4 2.9 39
2019-05-29 23:00:00 20.9 9 Nordeste 30 Norte 0 955.6 2.8 36
2019-05-29 22:00:00 22.6 19 Norte 37 Norte 0 954.3 1.8 33
2019-05-29 21:00:00 25.2 24 Norte 35 Norte 0 953.5 0.8 28
2019-05-29 20:00:00 27.1 21 Norte 33 Norte 0 952.8 -0.2 24
2019-05-29 19:00:00 28 14 Norte 33 Norte 0 952.5 -0.9 24
2019-05-29 18:00:00 28 19 Norte 33 Norte 0 952.7 -1.1 23
2019-05-29 17:00:00 27 10 Norte 35 Norte 0 953 -1.6 24
2019-05-29 16:00:00 26.1 11 Norte 30 Nordeste 0 953.4 -1.7 26
2019-05-29 15:00:00 23.9 8 Sudeste 26 Nordeste 0 953.8 -1.4 29
2019-05-29 14:00:00 22.7 12 Norte 26 Nordeste 0 954.6 -0.9 31
2019-05-29 13:00:00 21.1 15 Norte 28 Nordeste 0 955.1 -0.4 33
2019-05-29 12:00:00 19.8 14 Nordeste 30 Este 0 955.2 -0.4 34
2019-05-29 11:00:00 18 15 Nordeste 33 Este 0 955.5 0.3 36
2019-05-29 10:00:00 15.5 17 Nordeste 35 Nordeste 0 955.5 0.8 41
2019-05-29 09:00:00 13.1 17 Nordeste 35 Nordeste 0 955.6 1.3 48
2019-05-29 08:00:00 10.6 13 Nordeste 24 Nordeste 0 955.2 1.2 55
2019-05-29 07:00:00 9.9 9 Nordeste 26 Este 0 954.7 0.7 55
2019-05-29 06:00:00 10.4 15 Nordeste 32 Nordeste 0 954.3 0.5 55
2019-05-29 05:00:00 10.9 7 Nordeste 24 Norte 0 954 0.5 54
2019-05-29 04:00:00 11.7 9 Nordeste 26 Nordeste 0 954 0.9 51
2019-05-29 03:00:00 12.5 14 Nordeste 33 Nordeste 0 953.8 1.3 49
2019-05-29 02:00:00 13.7 20 Nordeste 37 Nordeste 0 953.5 1.7 46
2019-05-29 01:00:00 15 18 Nordeste 39 Nordeste 0 953.1 2.2 43
2019-05-29 00:00:00 16.6 16 Nordeste 32 Nordeste 0 952.5 2.4 39
2019-05-28 23:00:00 18.3 20 Norte 32 Norte 0 951.8 2.7 35
2019-05-28 22:00:00 19.3 11 Norte 37 Norte 0 950.9 2.5 31
2019-05-28 21:00:00 21.4 26 Norte 48 Norte 0 950.1 2.3 25
2019-05-28 20:00:00 23.1 30 Norte 52 Norte 0 949.1 1.3 23
2019-05-28 19:00:00 24.8 32 Norte 50 Norte 0 948.4 0.5 23
2019-05-28 18:00:00 26.5 30 Norte 46 Norte 0 947.8 -0.4 18
2019-05-28 17:00:00 26.9 19 Norte 39 Norte 0 947.8 -0.8 16
2019-05-28 16:00:00 26.7 20 Norte 45 Norte 0 947.9 -0.9 14
2019-05-28 15:00:00 26.3 18 Norte 33 Norte 0 948.2 -1 17
2019-05-28 14:00:00 25.1 14 Norte 30 Noroeste 0 948.6 -0.5 18
2019-05-28 13:00:00 23.6 11 Nordeste 32 Norte 0 948.8 -0.4 25
2019-05-28 12:00:00 21 8 Norte 18 Norte 0 949.2 0.3 32
2019-05-28 11:00:00 19.1 11 Nordeste 21 Nordeste 0 949.1 0.5 38
2019-05-28 10:00:00 16.9 11 Nordeste 24 Norte 0 949.2 1.4 42
2019-05-28 09:00:00 14.9 9 Nordeste 17 Norte 0 948.9 1.6 51
2019-05-28 08:00:00 12.9 7 Nordeste 15 Nordeste 0 948.6 1.4 62
2019-05-28 07:00:00 12.5 9 Nordeste 17 Norte 0 947.8 0.4 64
2019-05-28 06:00:00 13.2 5 Norte 18 Norte 0 947.3 -0.1 65
2019-05-28 05:00:00 13.9 12 Norte 21 Norte 0 947.2 -0.1 64
2019-05-28 04:00:00 14.6 10 Norte 21 Nordeste 0 947.4 0.3 61
2019-05-28 03:00:00 15.6 11 Nordeste 30 Nordeste 0 947.4 0.8 58
2019-05-28 02:00:00 16.8 14 Nordeste 30 Nordeste 0 947.3 1.6 52
2019-05-28 01:00:00 18.3 16 Nordeste 32 Nordeste 0 947.1 1.8 47
2019-05-28 00:00:00 20 13 Nordeste 28 Norte 0 946.6 1.9 44
2019-05-27 23:00:00 21.7 9 Nordeste 26 Norte 0 945.7 1.6 35
2019-05-27 22:00:00 23.1 17 Norte 35 Norte 0 945.3 1.5 34
2019-05-27 21:00:00 25.2 23 Norte 35 Norte 0 944.7 0.7 30
2019-05-27 20:00:00 27.2 20 Norte 37 Norte 0 944.1 -0.2 27
2019-05-27 19:00:00 28.6 23 Norte 39 Norte 0 943.8 -0.8 25
2019-05-27 18:00:00 29.1 19 Norte 33 Norte 0 944 -1.3 24
2019-05-27 17:00:00 28.1 14 Norte 37 Nordeste 0 944.3 -1.8 25
2019-05-27 16:00:00 29.3 12 Nordeste 28 Nordeste 0 944.6 -2.3 24
2019-05-27 15:00:00 28.2 14 Norte 28 Norte 0 945.3 -2.1 26
2019-05-27 14:00:00 26.9 11 Oeste 18 Noroeste 0 946.1 -1.8 28
2019-05-27 13:00:00 25.2 6 Sur 18 Sudoeste 0 946.9 -1.4 32
2019-05-27 12:00:00 22.9 6 Oeste 13 Sur 0 947.4 -1.1 36
2019-05-27 11:00:00 20.6 5 Sur 13 Sudoeste 0 947.9 -0.5 40
2019-05-27 10:00:00 18.2 8 Sur 15 Sur 0 948.3 0.2 47
2019-05-27 09:00:00 15.6 2 Norte 9 Nordeste 0 948.5 0.5 56
2019-05-27 08:00:00 12.1 4 Norte 9 Norte 0 948.4 0.4 69
2019-05-27 07:00:00 11.5 2 Norte 17 Norte 0 948.1 -0.3 69
2019-05-27 06:00:00 12.4 8 Norte 11 Norte 0 948 -0.6 67
2019-05-27 05:00:00 12.9 9 Nordeste 9 Nordeste 0 948 -1 64
2019-05-27 04:00:00 14.5 9 Noroeste 21 Nordeste 0 948.4 -0.8 57
2019-05-27 03:00:00 15.6 7 Nordeste 13 Nordeste 0 948.6 -1 53
2019-05-27 02:00:00 16.5 7 Norte 13 Norte 0 949 -0.3 51
2019-05-27 01:00:00 18.1 9 Nordeste 17 Nordeste 0 949.2 0.8 46
2019-05-27 00:00:00 20.2 11 Nordeste 30 Norte 0 949.6 1.7 41
2019-05-26 23:00:00 21.3 16 Norte 26 Nordeste 0 949.3 1.7 37
2019-05-26 22:00:00 22.8 15 Norte 30 Noroeste 0 948.4 0.6 33
2019-05-26 21:00:00 25.4 25 Norte 37 Norte 0 947.9 -0.2 30
2019-05-26 20:00:00 27 15 Noroeste 30 Norte 0 947.6 -0.8 28
2019-05-26 19:00:00 27.4 17 Noroeste 37 Noroeste 0 947.8 -1.1 27
2019-05-26 18:00:00 27.8 15 Norte 32 Noroeste 0 948.1 -1.6 25
2019-05-26 17:00:00 27.4 21 Norte 35 Noroeste 0 948.4 -1.9 24
2019-05-26 16:00:00 27 18 Norte 39 Noroeste 0 948.9 -2.3 22
2019-05-26 15:00:00 25.4 13 Norte 28 Noroeste 0 949.7 -1.9 25
2019-05-26 14:00:00 23.4 11 Norte 24 Norte 0 950.3 -1.8 29
2019-05-26 13:00:00 21.4 8 Norte 22 Norte 0 951.2 -1.2 32
2019-05-26 12:00:00 19.2 10 Norte 15 Norte 0 951.6 -1.1 36
2019-05-26 11:00:00 17.1 7 Noroeste 17 Norte 0 952.1 -0.6 41
2019-05-26 10:00:00 15.2 10 Nordeste 17 Este 0 952.4 0 48
2019-05-26 09:00:00 13 6 Norte 13 Norte 0 952.7 0.6 57
2019-05-26 08:00:00 9.4 2 Noroeste 5 Norte 0 952.7 0.4 73
2019-05-26 07:00:00 9.1 6 Este 9 Sudeste 0 952.4 0 73
2019-05-26 06:00:00 10 4 Este 11 Nordeste 0 952.1 -0.6 69
2019-05-26 05:00:00 11 7 Norte 22 Nordeste 0 952.3 -0.3 67
2019-05-26 04:00:00 11.7 11 Nordeste 24 Nordeste 0 952.4 -0.1 64
2019-05-26 03:00:00 12.7 12 Nordeste 32 Nordeste 0 952.7 0.2 61
2019-05-26 02:00:00 13.7 17 Nordeste 35 Nordeste 0 952.6 0.7 57
2019-05-26 01:00:00 14.9 17 Nordeste 32 Nordeste 0 952.5 1.4 54
2019-05-26 00:00:00 16.7 12 Nordeste 26 Norte 0 952.5 2.4 48
2019-05-25 23:00:00 18.7 15 Norte 33 Norte 0 951.9 2.4 42
2019-05-25 22:00:00 20.2 16 Norte 30 Norte 0 951.1 1.7 38
2019-05-25 21:00:00 22.7 14 Nordeste 24 Norte 0 950.1 0.6 32
2019-05-25 20:00:00 23.3 13 Nordeste 26 Nordeste 0 949.5 -0.1 31
2019-05-25 19:00:00 24.8 15 Nordeste 32 Nordeste 0 949.4 -0.4 29
2019-05-25 18:00:00 24.5 14 Norte 32 Norte 0 949.5 -0.9 27
2019-05-25 17:00:00 25.6 12 Norte 33 Nordeste 0 949.6 -1.4 26
2019-05-25 16:00:00 24.6 16 Nordeste 33 Norte 0 949.8 -1.8 28
2019-05-25 15:00:00 23.9 16 Norte 37 Nordeste 0 950.4 -1.4 30
2019-05-25 14:00:00 22.6 18 Norte 35 Norte 0 951 -1 32
2019-05-25 13:00:00 21.1 15 Norte 32 Norte 0 951.6 -0.2 35
2019-05-25 12:00:00 20.4 15 Norte 37 Norte 0 951.8 0.3 36
2019-05-25 11:00:00 17.6 16 Noroeste 30 Norte 0 952 0.5 42
2019-05-25 10:00:00 17.4 11 Nordeste 22 Este 0 951.8 0.9 45
2019-05-25 09:00:00 15.3 12 Norte 22 Norte 0 951.5 0.9 52
2019-05-25 08:00:00 12 11 Nordeste 24 Norte 0 951.5 1 62
2019-05-25 07:00:00 10.9 13 Norte 18 Norte 0 950.9 0.2 67
2019-05-25 06:00:00 11.3 7 Norte 21 Norte 0 950.6 -0.3 64
2019-05-25 05:00:00 11.7 11 Norte 21 Nordeste 0 950.5 -0.4 63
2019-05-25 04:00:00 11.2 7 Nordeste 17 Norte 0 950.7 -0.4 66
2019-05-25 03:00:00 12 7 Nordeste 15 Nordeste 0 950.9 0.1 63
2019-05-25 02:00:00 12.8 8 Nordeste 18 Norte 0 950.9 0.8 60
2019-05-25 01:00:00 13.9 9 Norte 22 Nordeste 0 951.1 2.2 56
2019-05-25 00:00:00 15.2 15 Norte 30 Norte 0 950.8 2.6 51
2019-05-24 23:00:00 16.3 17 Norte 30 Norte 0 950.1 3 43
2019-05-24 22:00:00 17.9 21 Norte 45 Norte 0 948.9 2.4 39
2019-05-24 21:00:00 20.2 19 Nordeste 33 Nordeste 0 948.2 1.8 37
2019-05-24 20:00:00 21.1 17 Norte 35 Nordeste 0 947.1 0.7 37
2019-05-24 19:00:00 23.7 19 Nordeste 37 Nordeste 0 946.5 -0.2 33
2019-05-24 18:00:00 24.3 19 Norte 33 Norte 0 946.4 -0.7 30
2019-05-24 17:00:00 24.4 17 Nordeste 35 Norte 0 946.4 -0.5 32
2019-05-24 16:00:00 24.5 18 Norte 35 Nordeste 0 946.7 -0.5 30
2019-05-24 15:00:00 22.7 19 Norte 39 Norte 0 947.1 -- 38
2019-05-24 14:00:00 24.3 18 Nordeste 39 Norte 0 946.9 -0.9 35
2019-05-24 13:00:00 23.1 21 Nordeste -- -- -- 947.2 -0.6 37
2019-05-24 12:00:00 -- -- -- -- -- -- -- -- --
2019-05-24 11:00:00 20.1 20 Nordeste 37 Nordeste 0 947.8 1 46
2019-05-24 10:00:00 18.7 22 Nordeste 39 Nordeste 0 947.8 1.2 53
2019-05-24 09:00:00 17.3 21 Nordeste 39 Nordeste 0 947.4 1 62
2019-05-24 08:00:00 15.8 7 Norte 18 Nordeste 0 946.8 0.5 68
2019-05-24 07:00:00 16.2 11 Norte 17 Norte 0 946.6 0 67
2019-05-24 06:00:00 16.7 4 Norte 13 Norte 0 946.4 -0.3 62
2019-05-24 05:00:00 17 0 Calma 9 Este 0 946.3 -0.4 60
2019-05-24 04:00:00 17.9 5 Nordeste 18 Nordeste 0 946.6 -0.1 56
2019-05-24 03:00:00 18.4 4 Este 15 Nordeste 0 946.7 0 49
2019-05-24 02:00:00 18.4 4 Nordeste 13 Norte 0 946.7 0.1 38
2019-05-24 01:00:00 20.2 8 Noroeste 17 Noroeste 0 946.7 0.5 33
2019-05-24 00:00:00 22.6 14 Noroeste 24 Oeste 0 946.7 0.9 29
2019-05-23 23:00:00 24.5 17 Oeste 33 Oeste 0 946.6 0.7 24
2019-05-23 22:00:00 25.7 19 Sudoeste 39 Sudoeste 0 946.2 0.2 22
2019-05-23 21:00:00 27.1 21 Sudoeste 39 Sudoeste 0 945.8 -0.6 21
2019-05-23 20:00:00 28.5 20 Oeste 37 Sudoeste 0 945.9 -1.1 19
2019-05-23 19:00:00 29.2 21 Sudoeste 41 Sudoeste 0 946 -1.7 18
2019-05-23 18:00:00 29.7 20 Sudoeste 59 Sudoeste 0 946.4 -2 18
2019-05-23 17:00:00 29.7 23 Sur 45 Sudoeste 0 947 -2.2 18
2019-05-23 16:00:00 28.7 23 Sudoeste 46 Sudoeste 0 947.7 -2.3 25
2019-05-23 15:00:00 28.3 26 Sudoeste 45 Sudoeste 0 948.4 -1.9 25
2019-05-23 14:00:00 27.6 12 Sudoeste 26 Sudoeste 0 949.2 -1 27
2019-05-23 13:00:00 24.8 6 Sur 13 Sur 0 950 -0.5 31
2019-05-23 12:00:00 22.5 5 Sur 13 Sur 0 950.3 0 35
2019-05-23 11:00:00 21.5 4 Norte 11 Sudoeste 0 950.2 0.4 37
2019-05-23 10:00:00 19.3 5 Norte 11 Norte 0 950.5 0.9 41
2019-05-23 09:00:00 16.9 2 Norte 8 Norte 0 950.3 1 50
2019-05-23 08:00:00 13.3 5 Norte 9 Norte 0 949.8 0.7 59
2019-05-23 07:00:00 12.2 3 Nordeste 8 Nordeste 0 949.6 0.6 61
2019-05-23 06:00:00 12.6 5 Noroeste 9 Norte 0 949.3 0.3 59
2019-05-23 05:00:00 13.3 6 Norte 9 Norte 0 949.1 0.1 57
2019-05-23 04:00:00 14.2 5 Norte 11 Noroeste 0 949 0 53
2019-05-23 03:00:00 15.7 9 Noroeste 13 Noroeste 0 949 -0.1 48
2019-05-23 02:00:00 17.1 4 Noroeste 11 Norte 0 949 0.3 45
2019-05-23 01:00:00 19 7 Sudeste 9 Sudeste 0 949 0.9 35
2019-05-23 00:00:00 20.7 4 Nordeste 15 Sudoeste 0 949.1 1.2 33
2019-05-22 23:00:00 24.3 11 Oeste 22 Sudoeste 0 948.7 1 27
2019-05-22 22:00:00 24.5 9 Sur 18 Sur 0 948.1 0.3 24
2019-05-22 21:00:00 26.5 9 Sur 17 Sur 0 947.9 0 21
2019-05-22 20:00:00 27.5 6 Sur 24 Oeste 0 947.7 -0.5 20
2019-05-22 19:00:00 28 5 Este 24 Sur 0 947.8 -1 20
2019-05-22 18:00:00 28.1 12 Sudeste 22 Sudoeste 0 947.9 -1.4 20
2019-05-22 17:00:00 28.5 6 Sudoeste 22 Sudoeste 0 948.2 -1.5 20
2019-05-22 16:00:00 27.7 10 Oeste 24 Oeste 0 948.8 -1.4 22
2019-05-22 15:00:00 26.8 9 Noroeste 28 Sudoeste 0 949.3 -1.1 23
2019-05-22 14:00:00 26.4 11 Noroeste 24 Norte 0 949.7 -0.9 24
2019-05-22 13:00:00 24.8 8 Sudoeste 17 Sur 0 950.2 -0.4 29
2019-05-22 12:00:00 22.7 9 Sur 15 Sudoeste 0 950.4 0 37
2019-05-22 11:00:00 20.2 6 Sur 11 Sudoeste 0 950.6 0.2 42
2019-05-22 10:00:00 18.2 6 Sur 15 Sur 0 950.6 0.6 44
2019-05-22 09:00:00 14.5 8 Norte 11 Norte 0 950.4 0.4 52
2019-05-22 08:00:00 10.4 4 Norte 9 Norte 0 950.4 0.5 67
2019-05-22 07:00:00 10 0 Calma 9 Noroeste 0 950 0.3 64
2019-05-22 06:00:00 11.1 7 Noroeste 9 Noroeste 0 950 0.5 60
2019-05-22 05:00:00 12.1 6 Norte 11 Norte 0 949.9 0.5 57
2019-05-22 04:00:00 13.1 6 Norte 13 Nordeste 0 949.7 1 52
2019-05-22 03:00:00 15 5 Norte 18 Nordeste 0 949.5 1.1 46
2019-05-22 02:00:00 15.1 9 Nordeste 24 Norte 0 949.4 1.3 46
2019-05-22 01:00:00 16.7 14 Noroeste 22 Norte 0 948.7 1.4 42
2019-05-22 00:00:00 17.2 6 Norte 8 Norte 0 948.4 1.5 40
2019-05-21 23:00:00 19.4 6 Nordeste 9 Nordeste 0 948.1 1.9 35
2019-05-21 22:00:00 21.3 3 Nordeste 17 Norte 0 947.3 1.3 30
2019-05-21 21:00:00 23.3 10 Norte 22 Norte 0 946.9 0.9 26
2019-05-21 20:00:00 23.8 15 Norte 28 Norte 0 946.2 -0.1 25
2019-05-21 19:00:00 24.2 21 Norte 28 Norte 0 946 -0.5 24
2019-05-21 18:00:00 26.1 10 Este 24 Este 0 946 -0.7 20
2019-05-21 17:00:00 25.9 11 Sudeste 26 Sur 0 946.3 -0.8 20
2019-05-21 16:00:00 25.3 11 Sudoeste 22 Sudoeste 0 946.5 -0.8 21
2019-05-21 15:00:00 24.6 10 Oeste 18 Este 0 946.7 -0.8 22
2019-05-21 14:00:00 23.8 10 Sur 22 Este 0 947.1 -0.6 23
2019-05-21 13:00:00 22.9 9 Nordeste 26 Norte 0 947.3 -0.4 27
2019-05-21 12:00:00 21.6 12 Norte 21 Este 0 947.5 0.1 33
2019-05-21 11:00:00 18.8 12 Norte 21 Nordeste 0 947.7 0.8 38
2019-05-21 10:00:00 15.5 10 Nordeste 21 Norte 0 947.7 1.2 47
2019-05-21 09:00:00 13.9 13 Norte 18 Norte 0 947.4 1 52
2019-05-21 08:00:00 13.3 9 Norte 18 Norte 0 946.9 0.8 54
2019-05-21 07:00:00 13.2 10 Norte 17 Norte 0 946.5 0.7 54
2019-05-21 06:00:00 13.4 10 Norte 17 Norte 0 946.4 0.6 54
2019-05-21 05:00:00 13.6 5 Norte 13 Norte 0 946.1 0.3 53
2019-05-21 04:00:00 14.2 3 Norte 18 Nordeste 0 945.8 0.1 50
2019-05-21 03:00:00 14 9 Norte 22 Nordeste 0 945.8 0.2 47
2019-05-21 02:00:00 13.5 6 Noroeste 13 Norte 0 945.8 0.5 44
2019-05-21 01:00:00 15.3 4 Nordeste 15 Noroeste 0 945.7 1.3 38
2019-05-21 00:00:00 16.9 8 Noroeste 17 Norte 0 945.6 1.6 32